Time;durP1;ratioP1;P1;durP2;ratioP2;P2;SDS_P1;SDS_P2;PMS_P1;PMS_P2;Temp;Humidity;BMP_temperature;BMP_pressure;BME280_temperature;BME280_humidity;BME280_pressure;Samples;Min_cycle;Max_cycle;Signal;HPM_P1;HPM_P2
2022/07/02 00:02:22;;;;;;;17.05;9.98;;;;;;;24.11;67.12;95185.44;4974928;28;20208;-69
2022/07/02 00:04:55;;;;;;;10.93;9.88;;;;;;;24.64;65.31;95186.06;4976711;28;20236;-69
2022/07/02 00:07:22;;;;;;;10.63;9.75;;;;;;;24.93;64.40;95185.28;4975822;28;20887;-70
2022/07/02 00:09:49;;;;;;;17.38;10.80;;;;;;;24.36;66.56;95182.44;4972365;28;20207;-70
2022/07/02 00:12:15;;;;;;;10.23;9.32;;;;;;;23.64;69.27;95182.50;4973873;28;20222;-72
2022/07/02 00:14:43;;;;;;;11.38;9.25;;;;;;;24.09;66.77;95176.97;4973858;28;20212;-70
2022/07/02 00:17:11;;;;;;;11.23;10.13;;;;;;;24.72;65.39;95177.59;4971765;28;20321;-70
2022/07/02 00:19:40;;;;;;;11.23;9.00;;;;;;;25.08;63.86;95184.78;4974276;28;20286;-70
2022/07/02 00:22:07;;;;;;;9.95;8.93;;;;;;;25.21;63.00;95184.50;4974754;28;20250;-70
2022/07/02 00:24:39;;;;;;;13.27;9.52;;;;;;;25.05;64.07;95190.25;4974600;28;20961;-70
2022/07/02 00:27:09;;;;;;;16.02;9.23;;;;;;;24.92;63.70;95189.66;4974018;28;20204;-70
2022/07/02 00:29:43;;;;;;;9.10;8.32;;;;;;;25.02;63.71;95180.09;4974201;28;22014;-70
2022/07/02 00:32:12;;;;;;;9.82;9.02;;;;;;;25.16;63.14;95180.66;4975309;28;20207;-69
2022/07/02 00:34:40;;;;;;;9.15;8.52;;;;;;;25.32;62.59;95173.94;4974647;28;20209;-70
2022/07/02 00:37:08;;;;;;;10.52;9.50;;;;;;;25.06;64.10;95171.09;4971915;28;20233;-68
2022/07/02 00:39:36;;;;;;;9.27;8.38;;;;;;;25.11;63.47;95177.66;4975521;28;20375;-71
2022/07/02 00:42:04;;;;;;;10.82;9.68;;;;;;;25.41;62.85;95177.50;4978964;28;20300;-70
2022/07/02 00:44:32;;;;;;;10.43;8.80;;;;;;;25.57;61.60;95182.13;4979657;28;20212;-71
2022/07/02 00:47:04;;;;;;;11.93;7.93;;;;;;;25.63;61.05;95177.22;4978591;28;20682;-70
2022/07/02 00:49:34;;;;;;;10.05;9.15;;;;;;;25.69;61.13;95184.47;4974230;28;20987;-69
2022/07/02 00:52:01;;;;;;;10.35;9.35;;;;;;;25.74;60.73;95179.66;4976456;28;20589;-69
2022/07/02 00:54:28;;;;;;;10.77;9.75;;;;;;;25.79;60.57;95186.22;4976529;28;20215;-69
2022/07/02 00:56:55;;;;;;;15.70;10.38;;;;;;;25.82;60.25;95191.16;4975571;28;20223;-69
2022/07/02 00:59:23;;;;;;;12.63;10.23;;;;;;;25.82;60.17;95188.56;4975194;28;20682;-69
2022/07/02 01:01:50;;;;;;;9.60;8.90;;;;;;;25.64;60.62;95186.69;4973045;28;20212;-68
2022/07/02 01:04:17;;;;;;;12.50;10.18;;;;;;;25.77;60.17;95176.78;4976414;28;20222;-68
2022/07/02 01:06:46;;;;;;;9.15;8.45;;;;;;;25.73;60.23;95187.63;4975550;28;20210;-68
2022/07/02 01:12:01;;;;;;;9.20;8.25;;;;;;;25.54;60.65;95180.63;4974341;28;20270;-68
2022/07/02 01:14:28;;;;;;;9.43;8.68;;;;;;;25.18;62.30;95182.19;4972856;28;20211;-68
2022/07/02 01:16:56;;;;;;;10.07;9.05;;;;;;;25.04;62.62;95178.19;4975211;28;20611;-69
2022/07/02 01:19:24;;;;;;;8.85;8.13;;;;;;;24.98;62.58;95176.16;4974716;28;20270;-68
2022/07/02 01:22:12;;;;;;;9.15;8.35;;;;;;;24.74;63.48;95170.50;4974345;28;22015;-69
2022/07/02 01:24:39;;;;;;;11.05;8.38;;;;;;;24.99;62.76;95175.16;4973155;28;20302;-69
2022/07/02 01:27:07;;;;;;;10.18;9.30;;;;;;;25.03;62.33;95170.53;4976037;28;20203;-69
2022/07/02 01:29:34;;;;;;;9.88;9.07;;;;;;;24.58;64.05;95170.19;4974025;28;20246;-68
2022/07/02 01:32:01;;;;;;;9.95;8.98;;;;;;;24.27;65.21;95169.41;4972550;28;20219;-68
2022/07/02 01:34:27;;;;;;;10.48;9.38;;;;;;;24.26;65.31;95173.78;4974065;28;20211;-68
2022/07/02 01:36:54;;;;;;;12.68;8.65;;;;;;;24.31;65.08;95174.22;4974289;28;20313;-68
2022/07/02 01:39:26;;;;;;;12.85;8.70;;;;;;;24.40;65.32;95178.63;4970958;28;20692;-68
2022/07/02 01:41:53;;;;;;;10.50;8.73;;;;;;;24.73;63.85;95171.44;4974504;28;20196;-68
2022/07/02 01:44:19;;;;;;;12.05;8.45;;;;;;;24.96;63.16;95170.28;4972851;28;20223;-68
2022/07/02 01:46:46;;;;;;;10.40;9.45;;;;;;;24.90;62.96;95173.38;4973558;28;20641;-68
2022/07/02 01:49:13;;;;;;;9.60;8.85;;;;;;;24.71;63.61;95170.75;4972495;28;20685;-67
2022/07/02 01:51:40;;;;;;;11.90;8.10;;;;;;;24.79;63.02;95173.50;4974312;28;20234;-68
2022/07/02 01:54:07;;;;;;;14.88;8.70;;;;;;;24.86;62.91;95169.41;4974041;28;20206;-68
2022/07/02 01:56:36;;;;;;;14.68;9.00;;;;;;;24.70;63.73;95174.31;4972831;28;21557;-68
2022/07/02 01:59:04;;;;;;;12.23;9.18;;;;;;;24.49;63.98;95174.41;4975352;28;20208;-68
2022/07/02 02:01:31;;;;;;;9.85;8.95;;;;;;;24.47;64.28;95175.50;4972768;28;21067;-69
2022/07/02 02:03:58;;;;;;;11.23;8.82;;;;;;;24.59;63.60;95171.81;4974954;28;20205;-68
2022/07/02 02:06:25;;;;;;;8.75;7.95;;;;;;;24.80;62.98;95175.13;4974792;28;20219;-69
2022/07/02 02:08:52;;;;;;;9.48;8.55;;;;;;;24.85;61.65;95172.13;4973565;28;20203;-68
2022/07/02 02:11:19;;;;;;;8.77;8.07;;;;;;;24.68;62.24;95165.81;4973908;28;20211;-68
2022/07/02 02:13:47;;;;;;;9.35;7.53;;;;;;;24.67;61.97;95175.41;4973791;28;20271;-69
2022/07/02 02:16:14;;;;;;;9.70;8.18;;;;;;;24.49;62.63;95176.19;4973286;28;20207;-68
2022/07/02 02:18:41;;;;;;;10.07;9.02;;;;;;;24.37;62.50;95171.09;4974920;28;20262;-68
2022/07/02 02:21:08;;;;;;;9.73;8.48;;;;;;;24.10;63.14;95173.41;4972952;28;20239;-68
2022/07/02 02:23:34;;;;;;;9.02;8.25;;;;;;;24.06;62.90;95175.44;4974850;28;20208;-68
2022/07/02 02:26:01;;;;;;;8.30;7.63;;;;;;;23.94;63.25;95178.28;4972446;28;20239;-68
2022/07/02 02:28:28;;;;;;;10.13;8.15;;;;;;;23.92;63.65;95182.78;4972660;28;20306;-69
2022/07/02 02:30:56;;;;;;;10.85;7.95;;;;;;;23.63;64.02;95186.03;4973335;28;20212;-69
2022/07/02 02:33:23;;;;;;;8.60;7.85;;;;;;;22.85;66.59;95191.53;4973732;28;20208;-69
2022/07/02 02:35:49;;;;;;;9.00;8.30;;;;;;;23.14;66.37;95186.59;4974274;28;21784;-68
2022/07/02 02:38:16;;;;;;;9.00;8.27;;;;;;;23.23;65.89;95185.06;4973528;28;20294;-68
2022/07/02 02:40:43;;;;;;;8.80;8.10;;;;;;;23.43;65.32;95192.00;4974493;28;20232;-70
2022/07/02 02:43:10;;;;;;;8.65;7.95;;;;;;;23.17;65.83;95190.72;4973686;28;20291;-68
2022/07/02 02:45:36;;;;;;;11.93;8.27;;;;;;;22.70;67.27;95198.75;4974227;28;20428;-68
2022/07/02 02:48:05;;;;;;;8.32;7.72;;;;;;;22.66;67.60;95204.28;4979082;28;20291;-68
2022/07/02 02:50:32;;;;;;;7.95;7.28;;;;;;;22.90;67.25;95201.53;4975301;28;21204;-68
2022/07/02 02:52:59;;;;;;;9.15;8.45;;;;;;;22.77;67.35;95204.25;4976204;28;20213;-69
2022/07/02 02:55:25;;;;;;;10.63;7.97;;;;;;;23.04;66.97;95207.25;4975569;28;20262;-68
2022/07/02 02:57:53;;;;;;;8.77;8.18;;;;;;;23.32;66.29;95211.03;4978181;28;20228;-69
2022/07/02 03:00:20;;;;;;;9.70;8.85;;;;;;;23.45;65.68;95210.88;4976454;28;20704;-69
2022/07/02 03:02:47;;;;;;;8.73;7.93;;;;;;;23.18;66.88;95224.31;4978098;28;20208;-70
2022/07/02 03:05:15;;;;;;;14.85;9.15;;;;;;;22.62;68.91;95215.81;4977779;28;20230;-68
2022/07/02 03:07:42;;;;;;;10.45;9.25;;;;;;;22.40;70.37;95225.28;4976757;28;20201;-68
2022/07/02 03:10:10;;;;;;;12.80;9.05;;;;;;;22.40;70.71;95227.88;4976419;28;20293;-68
2022/07/02 03:12:37;;;;;;;10.13;8.57;;;;;;;22.73;69.51;95231.38;4976297;28;20215;-69
2022/07/02 03:15:04;;;;;;;9.57;8.05;;;;;;;22.58;70.37;95225.59;4973879;28;20208;-68
2022/07/02 03:17:30;;;;;;;10.38;9.45;;;;;;;22.59;70.34;95221.25;4975910;28;20312;-68
2022/07/02 03:19:57;;;;;;;10.13;9.25;;;;;;;22.43;70.81;95220.81;4978175;28;20255;-68
2022/07/02 03:22:25;;;;;;;9.35;8.50;;;;;;;22.35;70.89;95234.34;4976951;28;20244;-69
2022/07/02 03:24:52;;;;;;;9.07;8.27;;;;;;;22.49;70.27;95234.09;4976468;28;20676;-69
2022/07/02 03:27:19;;;;;;;9.38;8.52;;;;;;;22.65;69.64;95233.72;4977160;28;20208;-69
2022/07/02 03:29:46;;;;;;;9.60;8.68;;;;;;;22.81;69.41;95230.78;4978655;28;20276;-68
2022/07/02 03:32:14;;;;;;;10.23;9.20;;;;;;;22.78;69.20;95236.19;4976627;28;20224;-69
2022/07/02 03:34:41;;;;;;;10.30;9.30;;;;;;;23.18;67.44;95234.69;4975825;28;20295;-69
2022/07/02 03:37:07;;;;;;;12.30;9.15;;;;;;;24.00;64.96;95240.84;4975879;28;20231;-70
2022/07/02 03:39:35;;;;;;;9.45;8.32;;;;;;;25.09;61.69;95241.03;4976522;28;20216;-69
2022/07/02 03:42:02;;;;;;;10.55;9.70;;;;;;;25.61;58.58;95238.97;4975574;28;20213;-68
2022/07/02 03:44:29;;;;;;;9.02;8.25;;;;;;;25.33;59.55;95245.00;4975811;28;21324;-69
2022/07/02 03:46:56;;;;;;;9.38;7.88;;;;;;;26.01;58.77;95237.97;4975318;28;20741;-70
2022/07/02 03:49:23;;;;;;;12.95;8.50;;;;;;;26.87;56.14;95234.22;4977541;28;20242;-70
2022/07/02 03:51:49;;;;;;;9.38;8.68;;;;;;;27.39;53.58;95244.88;4975883;28;20666;-69
2022/07/02 03:54:16;;;;;;;10.13;9.20;;;;;;;27.80;51.73;95240.84;4976759;28;20273;-69
2022/07/02 03:56:44;;;;;;;10.23;9.27;;;;;;;28.41;50.84;95238.16;4974872;28;20580;-69
2022/07/02 03:59:11;;;;;;;8.65;7.82;;;;;;;29.13;50.12;95243.00;4975998;28;20213;-69
2022/07/02 04:01:38;;;;;;;13.13;9.02;;;;;;;30.26;46.93;95240.44;4975138;28;20211;-70
2022/07/02 04:04:05;;;;;;;12.75;8.32;;;;;;;31.25;44.80;95244.34;4975067;28;20270;-70
2022/07/02 04:06:31;;;;;;;9.02;8.30;;;;;;;31.84;43.35;95236.72;4976168;28;20223;-69
2022/07/02 04:08:58;;;;;;;18.10;9.55;;;;;;;32.12;42.90;95243.84;4975777;28;20201;-70
2022/07/02 04:11:26;;;;;;;10.30;8.63;;;;;;;32.46;41.54;95245.16;4975344;28;20221;-70
2022/07/02 04:13:54;;;;;;;9.65;8.75;;;;;;;32.44;41.10;95237.44;4975587;28;20209;-70
2022/07/02 04:16:21;;;;;;;9.68;8.15;;;;;;;31.78;42.44;95241.69;4973196;28;20586;-70
2022/07/02 04:18:47;;;;;;;8.60;7.90;;;;;;;30.84;45.02;95251.59;4974793;28;20228;-70
2022/07/02 04:21:14;;;;;;;10.85;8.98;;;;;;;30.29;46.25;95253.22;4975239;28;20232;-70
2022/07/02 04:23:41;;;;;;;11.07;9.93;;;;;;;29.97;46.56;95254.03;4973619;28;20285;-69
2022/07/02 04:26:11;;;;;;;9.57;8.93;;;;;;;29.67;47.19;95252.13;4974050;28;20212;-70
2022/07/02 04:28:37;;;;;;;9.77;8.75;;;;;;;29.24;48.80;95250.53;4974312;28;20207;-69
2022/07/02 04:31:06;;;;;;;10.68;9.52;;;;;;;29.02;48.79;95257.19;4973726;28;20208;-70
2022/07/02 04:33:33;;;;;;;12.32;9.63;;;;;;;28.98;49.26;95256.69;4975855;28;20263;-70
2022/07/02 04:36:00;;;;;;;13.05;8.73;;;;;;;28.85;50.13;95255.53;4974700;28;22079;-70
2022/07/02 04:38:27;;;;;;;10.93;9.27;;;;;;;29.03;49.65;95258.84;4972980;28;20228;-69
2022/07/02 04:40:53;;;;;;;11.90;9.00;;;;;;;29.49;47.85;95249.63;4975974;28;20201;-69
2022/07/02 04:43:20;;;;;;;10.27;9.10;;;;;;;29.91;46.87;95251.28;4976415;28;20303;-69
2022/07/02 04:45:47;;;;;;;10.82;9.77;;;;;;;30.29;46.05;95247.97;4974907;28;20215;-69
2022/07/02 04:48:15;;;;;;;16.58;10.13;;;;;;;30.34;46.47;95243.03;4974371;28;20678;-69
2022/07/02 04:50:42;;;;;;;11.00;9.95;;;;;;;31.03;44.39;95256.41;4972722;28;20216;-69
2022/07/02 04:53:09;;;;;;;10.40;9.35;;;;;;;31.33;44.08;95253.00;4974736;28;20265;-68
2022/07/02 04:55:35;;;;;;;12.48;10.00;;;;;;;31.70;43.14;95256.69;5031400;22;20801;-68
2022/07/02 04:58:02;;;;;;;13.07;10.00;;;;;;;32.40;41.80;95262.50;5008293;28;20280;-68
2022/07/02 05:00:30;;;;;;;19.00;13.00;;;;;;;33.39;39.69;95257.72;5006355;28;21247;-69
2022/07/02 05:02:56;;;;;;;65.57;46.53;;;;;;;33.40;39.11;95259.34;5007668;28;20207;-69
2022/07/02 05:05:25;;;;;;;54.65;38.30;;;;;;;32.83;40.38;95261.88;4997065;28;20822;-69
2022/07/02 05:07:51;;;;;;;23.38;19.85;;;;;;;32.36;41.18;95258.59;4988206;28;20270;-69
2022/07/02 05:10:18;;;;;;;53.60;39.70;;;;;;;31.87;42.36;95255.56;4987250;28;20694;-68
2022/07/02 05:12:45;;;;;;;28.55;22.38;;;;;;;31.32;43.67;95253.16;4988220;28;20204;-69
2022/07/02 05:15:12;;;;;;;13.88;12.43;;;;;;;31.08;43.91;95260.16;4987952;28;20223;-68
2022/07/02 05:17:39;;;;;;;21.48;17.67;;;;;;;31.15;44.13;95256.88;4989191;28;20231;-69
2022/07/02 05:20:06;;;;;;;40.30;31.27;;;;;;;31.48;43.56;95252.22;4988777;28;20199;-70
2022/07/02 05:22:35;;;;;;;68.93;51.67;;;;;;;32.64;41.26;95256.16;4988289;28;20208;-69
2022/07/02 05:25:01;;;;;;;40.47;34.45;;;;;;;34.33;37.75;95255.72;4988776;28;20208;-69
2022/07/02 05:27:28;;;;;;;19.45;17.10;;;;;;;36.00;35.02;95259.59;4989155;28;20208;-69
2022/07/02 05:29:55;;;;;;;24.35;20.83;;;;;;;37.26;32.76;95266.31;4988070;28;20203;-69
2022/07/02 05:32:21;;;;;;;17.60;12.63;;;;;;;38.21;31.27;95261.03;4990341;28;20269;-69
2022/07/02 05:34:48;;;;;;;15.80;11.23;;;;;;;38.52;30.89;95265.44;4989194;28;20730;-70
2022/07/02 05:37:15;;;;;;;12.68;11.45;;;;;;;38.88;30.13;95260.16;4988935;28;20212;-70
2022/07/02 05:39:43;;;;;;;13.15;10.73;;;;;;;38.41;30.58;95265.13;4986920;28;20207;-70
2022/07/02 05:42:10;;;;;;;10.93;9.98;;;;;;;38.35;30.76;95271.31;4990003;28;20196;-70
2022/07/02 05:44:37;;;;;;;14.82;11.55;;;;;;;38.45;30.38;95262.84;4988987;28;21844;-69
2022/07/02 05:47:05;;;;;;;16.02;12.10;;;;;;;37.99;31.01;95269.34;4987820;28;20894;-70
2022/07/02 05:49:31;;;;;;;16.52;14.75;;;;;;;38.29;30.71;95279.34;4987415;28;20266;-68
2022/07/02 05:51:58;;;;;;;14.32;10.80;;;;;;;37.90;31.19;95278.59;4989374;28;20701;-69
2022/07/02 05:54:25;;;;;;;14.20;10.25;;;;;;;37.71;31.63;95275.06;4988127;28;20330;-69
2022/07/02 05:56:53;;;;;;;11.63;10.63;;;;;;;37.42;32.30;95272.94;4987506;28;20200;-69
2022/07/02 05:59:21;;;;;;;15.05;13.30;;;;;;;37.91;31.53;95271.44;4986871;28;20592;-69
2022/07/02 06:01:48;;;;;;;15.50;11.38;;;;;;;37.41;32.28;95269.47;4987211;28;22198;-70
2022/07/02 06:04:15;;;;;;;11.65;10.43;;;;;;;37.41;32.49;95273.97;4986702;28;21249;-70
2022/07/02 06:09:26;;;;;;;13.20;11.85;;;;;;;37.76;31.47;95267.28;4987685;28;20215;-68
2022/07/02 06:11:55;;;;;;;15.93;12.25;;;;;;;37.13;32.69;95277.75;4987584;28;21748;-69
2022/07/02 06:14:21;;;;;;;13.38;11.95;;;;;;;36.87;33.41;95271.75;4987703;28;20215;-69
2022/07/02 06:16:48;;;;;;;12.55;10.82;;;;;;;36.30;33.78;95268.78;4987095;28;20755;-69
2022/07/02 06:19:15;;;;;;;14.57;10.07;;;;;;;35.95;34.97;95277.91;4987366;28;20220;-68
2022/07/02 06:21:42;;;;;;;12.85;10.27;;;;;;;35.68;35.30;95274.41;4991361;28;21798;-69
2022/07/02 06:24:11;;;;;;;14.23;12.50;;;;;;;34.69;36.35;95279.28;4992130;28;20214;-68
2022/07/02 06:26:38;;;;;;;11.27;10.25;;;;;;;34.01;38.31;95278.16;4992281;28;20204;-68
2022/07/02 06:29:06;;;;;;;14.50;10.68;;;;;;;34.77;36.95;95274.66;4991072;28;20708;-69
2022/07/02 06:31:32;;;;;;;11.57;10.52;;;;;;;35.22;35.50;95276.91;4991599;28;20231;-67
2022/07/02 06:33:59;;;;;;;11.10;10.25;;;;;;;35.34;35.84;95275.34;4991619;28;20711;-69
2022/07/02 06:36:26;;;;;;;11.38;10.52;;;;;;;35.32;36.70;95283.47;4991149;28;20204;-70
2022/07/02 06:38:53;;;;;;;16.77;10.65;;;;;;;34.57;36.88;95278.19;4991193;28;20223;-69
2022/07/02 06:44:07;;;;;;;11.18;10.27;;;;;;;34.72;37.76;95281.53;4989298;28;20214;-68
2022/07/02 06:46:34;;;;;;;14.88;9.68;;;;;;;34.25;38.28;95283.03;4991025;28;20215;-69
2022/07/02 06:49:01;;;;;;;13.30;10.75;;;;;;;33.86;38.76;95286.16;4990126;28;20203;-70
2022/07/02 06:51:28;;;;;;;11.63;10.48;;;;;;;33.74;39.00;95275.28;4995475;28;20238;-71
2022/07/02 06:54:00;;;;;;;11.60;9.55;;;;;;;33.75;39.14;95284.81;4991199;28;20239;-71
2022/07/02 06:56:28;;;;;;;9.80;9.07;;;;;;;32.74;40.74;95290.09;4991970;28;20239;-71
2022/07/02 06:58:55;;;;;;;12.80;9.80;;;;;;;32.91;40.50;95285.47;4991348;28;20309;-71
2022/07/02 07:01:23;;;;;;;11.23;10.05;;;;;;;33.10;40.66;95288.34;4990546;28;20270;-70
2022/07/02 07:03:50;;;;;;;14.13;10.55;;;;;;;33.05;40.82;95288.09;4991991;28;20208;-70
2022/07/02 07:06:18;;;;;;;13.00;10.27;;;;;;;33.19;40.30;95282.97;4989513;28;20315;-70
2022/07/02 07:08:44;;;;;;;14.02;10.90;;;;;;;33.17;40.45;95292.84;4988368;28;20203;-71
2022/07/02 07:11:11;;;;;;;14.48;10.60;;;;;;;33.15;40.64;95290.44;4992224;28;20261;-70
2022/07/02 07:13:38;;;;;;;9.65;8.65;;;;;;;33.25;39.89;95304.13;4988266;28;20738;-69
2022/07/02 07:16:05;;;;;;;10.02;9.27;;;;;;;33.31;39.98;95292.06;4988921;28;20610;-69
2022/07/02 07:18:34;;;;;;;10.35;9.60;;;;;;;33.17;40.81;95295.50;4991332;28;20873;-68
2022/07/02 07:21:00;;;;;;;10.25;9.10;;;;;;;33.04;40.90;95293.53;4991893;28;20199;-69
2022/07/02 07:23:27;;;;;;;17.38;12.20;;;;;;;32.98;40.99;95296.88;4990988;28;20211;-69
2022/07/02 07:25:54;;;;;;;10.68;9.65;;;;;;;32.89;41.14;95298.81;4991662;28;20204;-70
2022/07/02 07:28:24;;;;;;;9.55;8.75;;;;;;;32.99;40.50;95288.81;4990073;28;20270;-70
2022/07/02 07:30:50;;;;;;;10.88;9.82;;;;;;;32.42;41.38;95292.03;4990988;28;21504;-69
2022/07/02 07:33:17;;;;;;;10.38;9.35;;;;;;;32.53;42.05;95303.13;4989206;28;20685;-68
2022/07/02 07:35:45;;;;;;;10.20;9.30;;;;;;;32.64;42.53;95294.81;4989971;28;20215;-69
2022/07/02 07:38:12;;;;;;;10.52;9.35;;;;;;;32.95;42.14;95303.34;4991201;28;20195;-70
2022/07/02 07:40:39;;;;;;;12.13;10.30;;;;;;;33.13;41.06;95298.53;4991180;28;20214;-69
2022/07/02 07:43:06;;;;;;;10.85;9.82;;;;;;;33.08;41.02;95308.78;4990892;28;20204;-69
2022/07/02 07:45:32;;;;;;;9.25;8.65;;;;;;;32.89;41.42;95298.00;4989548;28;20430;-69
2022/07/02 07:47:59;;;;;;;10.10;9.20;;;;;;;32.87;41.43;95300.00;4989676;28;20273;-70
2022/07/02 07:50:26;;;;;;;9.82;8.93;;;;;;;32.84;41.89;95300.38;4990897;28;20212;-70
2022/07/02 07:52:54;;;;;;;10.10;9.20;;;;;;;32.94;41.31;95301.69;4989710;28;20230;-70
2022/07/02 07:55:21;;;;;;;18.83;10.02;;;;;;;33.12;41.20;95299.53;4989446;28;20239;-69
2022/07/02 07:57:48;;;;;;;21.50;16.73;;;;;;;33.15;40.75;95297.53;4988922;28;20203;-71
2022/07/02 08:00:16;;;;;;;16.20;14.57;;;;;;;33.03;40.15;95305.06;4990227;28;20839;-70
2022/07/02 08:02:42;;;;;;;10.48;9.45;;;;;;;32.65;41.25;95302.53;4988736;28;20199;-69
2022/07/02 08:05:09;;;;;;;10.57;9.60;;;;;;;32.55;40.91;95298.50;4990328;28;20235;-70
2022/07/02 08:07:37;;;;;;;13.45;9.38;;;;;;;32.41;42.01;95295.72;4989583;28;20232;-70
2022/07/02 08:10:07;;;;;;;11.27;10.10;;;;;;;32.33;42.45;95293.16;4990000;28;20705;-69
2022/07/02 08:12:34;;;;;;;12.10;10.32;;;;;;;32.59;42.26;95300.59;4990803;28;20705;-69
2022/07/02 08:15:01;;;;;;;11.85;9.48;;;;;;;32.71;42.23;95306.22;4989156;28;20568;-69
2022/07/02 08:17:29;;;;;;;12.23;9.45;;;;;;;32.91;41.91;95302.09;4989927;28;20212;-69
2022/07/02 08:19:56;;;;;;;10.95;9.93;;;;;;;33.04;41.60;95296.16;4988174;28;20405;-70
2022/07/02 08:22:23;;;;;;;11.88;10.57;;;;;;;33.13;41.22;95303.78;4990216;28;20208;-68
2022/07/02 08:24:50;;;;;;;13.13;11.68;;;;;;;33.26;40.81;95289.97;4988692;28;20219;-69
2022/07/02 08:27:18;;;;;;;11.15;10.25;;;;;;;33.38;41.02;95293.78;4988953;28;20347;-70
2022/07/02 08:29:45;;;;;;;11.15;10.07;;;;;;;33.45;40.24;95293.81;4991328;28;20212;-69
2022/07/02 08:32:12;;;;;;;10.95;10.13;;;;;;;33.58;39.33;95301.88;4988615;28;20211;-70
2022/07/02 08:34:39;;;;;;;17.70;10.65;;;;;;;33.44;40.52;95302.72;4990244;28;20218;-69
2022/07/02 08:37:07;;;;;;;11.57;10.68;;;;;;;33.42;40.39;95304.72;4988465;28;20207;-69
2022/07/02 08:39:33;;;;;;;31.48;24.67;;;;;;;33.62;39.83;95305.78;4989094;28;20227;-71
2022/07/02 08:42:01;;;;;;;41.28;35.10;;;;;;;33.59;39.71;95305.34;4989377;28;20642;-70
2022/07/02 08:44:32;;;;;;;81.65;63.67;;;;;;;33.53;39.96;95299.00;4989596;28;20211;-71
2022/07/02 08:47:00;;;;;;;60.67;45.17;;;;;;;33.48;39.88;95304.00;4987266;28;20210;-69
2022/07/02 08:49:27;;;;;;;20.10;18.00;;;;;;;33.32;39.91;95305.03;4988704;28;20230;-69
2022/07/02 08:52:01;;;;;;;26.10;22.73;;;;;;;33.15;40.36;95310.69;4988557;28;20221;-69
2022/07/02 08:54:28;;;;;;;72.75;55.28;;;;;;;33.21;40.31;95304.66;4988267;28;20235;-69
2022/07/02 08:56:55;;;;;;;36.65;27.60;;;;;;;33.25;41.05;95303.28;4989233;28;20635;-71
2022/07/02 08:59:22;;;;;;;46.33;35.50;;;;;;;33.31;40.87;95302.59;4992431;28;20348;-71
2022/07/02 09:01:52;;;;;;;27.17;19.08;;;;;;;33.29;40.11;95310.69;4990961;28;20215;-71
2022/07/02 09:04:20;;;;;;;41.67;29.92;;;;;;;33.36;39.86;95311.59;4993592;28;20821;-72
2022/07/02 09:06:48;;;;;;;16.10;11.65;;;;;;;33.33;39.47;95300.59;4990525;28;20212;-70
2022/07/02 09:09:16;;;;;;;25.38;21.88;;;;;;;33.47;40.04;95307.63;4995799;28;20866;-71
2022/07/02 09:11:43;;;;;;;19.50;16.73;;;;;;;33.51;39.44;95300.16;4997619;28;20330;-72
2022/07/02 09:14:10;;;;;;;13.25;11.82;;;;;;;33.46;39.68;95300.72;4988232;28;20204;-70
2022/07/02 09:16:39;;;;;;;9.10;8.40;;;;;;;33.03;40.12;95299.78;4987044;28;20671;-70
2022/07/02 09:19:07;;;;;;;9.75;8.65;;;;;;;32.85;39.32;95292.28;4990528;28;20235;-71
2022/07/02 09:21:41;;;;;;;14.57;8.95;;;;;;;32.96;40.24;95294.44;4988931;28;20708;-71
2022/07/02 09:24:08;;;;;;;9.23;8.32;;;;;;;33.00;40.40;95295.72;4990366;28;20203;-70
2022/07/02 09:26:35;;;;;;;15.13;10.85;;;;;;;33.26;40.01;95282.06;4991529;28;20352;-70
2022/07/02 09:29:04;;;;;;;11.43;10.32;;;;;;;33.25;39.64;95282.22;4988337;28;20719;-69
2022/07/02 09:31:32;;;;;;;9.25;8.60;;;;;;;33.52;39.15;95283.38;4990096;28;20208;-70
2022/07/02 09:33:59;;;;;;;8.55;7.53;;;;;;;33.34;38.78;95281.97;4989191;28;20298;-70
2022/07/02 09:36:27;;;;;;;11.05;7.35;;;;;;;33.09;38.32;95278.81;4987417;28;20207;-69
2022/07/02 09:38:55;;;;;;;10.60;7.30;;;;;;;32.90;38.50;95282.03;4987630;28;20259;-69
2022/07/02 09:41:23;;;;;;;9.30;6.13;;;;;;;33.05;38.30;95288.09;4985940;28;20207;-70
2022/07/02 09:43:53;;;;;;;8.77;8.07;;;;;;;33.06;38.43;95289.72;4987466;28;20207;-70
2022/07/02 09:46:22;;;;;;;8.02;7.30;;;;;;;33.21;38.07;95291.50;4987190;28;20208;-70
2022/07/02 09:48:49;;;;;;;14.27;8.07;;;;;;;32.99;38.82;95286.19;4991907;28;20214;-68
2022/07/02 09:51:17;;;;;;;9.77;8.48;;;;;;;32.96;39.15;95286.53;4987750;28;20215;-69
2022/07/02 09:53:53;;;;;;;9.75;8.98;;;;;;;33.01;39.77;95283.38;4989066;28;20231;-69
2022/07/02 09:56:21;;;;;;;13.45;11.27;;;;;;;32.84;40.37;95284.56;4988804;28;20218;-69
2022/07/02 09:58:48;;;;;;;12.90;9.63;;;;;;;32.49;41.58;95286.06;4991202;28;20269;-68
2022/07/02 10:01:19;;;;;;;20.05;10.20;;;;;;;32.33;41.41;95281.81;4978667;28;20219;-69
2022/07/02 10:03:47;;;;;;;9.95;9.15;;;;;;;32.63;40.79;95274.75;4986796;28;20198;-71
2022/07/02 10:06:15;;;;;;;8.75;8.05;;;;;;;33.01;42.20;95268.38;4981675;28;20231;-69
2022/07/02 10:08:43;;;;;;;20.40;16.20;;;;;;;33.04;41.11;95264.56;4988324;28;20207;-68
2022/07/02 10:11:13;;;;;;;12.38;9.75;;;;;;;33.39;40.02;95261.16;4985000;28;20298;-68
2022/07/02 10:13:41;;;;;;;8.38;7.88;;;;;;;33.10;39.81;95264.66;4989171;28;20214;-68
2022/07/02 10:16:14;;;;;;;9.52;8.07;;;;;;;33.01;39.79;95264.94;4991554;28;20207;-68
2022/07/02 10:18:41;;;;;;;8.85;8.27;;;;;;;32.69;40.28;95255.56;4992465;28;20210;-69
2022/07/02 10:21:09;;;;;;;9.25;8.30;;;;;;;32.57;40.27;95254.41;4992250;28;20289;-70
2022/07/02 10:23:37;;;;;;;9.50;7.13;;;;;;;32.70;39.74;95254.59;5014249;28;20227;-69
2022/07/02 10:26:04;;;;;;;8.75;7.85;;;;;;;33.23;40.13;95252.63;5014101;28;20259;-69
2022/07/02 10:28:33;;;;;;;7.35;6.85;;;;;;;33.18;38.61;95247.91;5014426;28;20201;-69
2022/07/02 10:31:00;;;;;;;7.40;6.90;;;;;;;32.91;37.30;95244.19;5014070;28;20201;-69
2022/07/02 10:33:33;;;;;;;7.85;6.80;;;;;;;32.79;39.48;95245.63;5013347;28;20211;-69
2022/07/02 10:36:01;;;;;;;8.65;7.40;;;;;;;32.51;38.17;95248.06;5014103;28;20204;-69
2022/07/02 10:38:30;;;;;;;9.50;6.55;;;;;;;32.71;39.82;95248.31;5013362;28;20212;-69
2022/07/02 10:40:58;;;;;;;9.63;7.85;;;;;;;32.53;39.26;95245.25;5014368;28;20224;-69
2022/07/02 10:43:29;;;;;;;8.88;7.93;;;;;;;32.72;39.32;95249.97;5013979;28;20200;-69
2022/07/02 10:46:05;;;;;;;8.13;7.47;;;;;;;33.27;38.74;95244.19;5014408;28;20303;-68
2022/07/02 10:48:34;;;;;;;8.25;7.60;;;;;;;33.59;38.30;95242.91;5014119;28;20259;-69
2022/07/02 10:51:02;;;;;;;7.97;7.38;;;;;;;33.78;38.13;95241.47;5014163;28;20283;-70
2022/07/02 10:53:30;;;;;;;8.32;7.63;;;;;;;33.87;36.96;95234.25;5013209;28;20235;-70
2022/07/02 10:56:03;;;;;;;7.32;6.82;;;;;;;34.05;36.42;95237.22;5013994;28;20234;-68
2022/07/02 10:58:32;;;;;;;7.40;6.88;;;;;;;33.34;36.83;95245.09;5013635;28;20761;-70
2022/07/02 11:01:11;;;;;;;8.27;6.75;;;;;;;33.10;38.49;95240.94;5013536;28;20231;-70
2022/07/02 11:03:38;;;;;;;10.95;7.93;;;;;;;32.91;38.62;95227.56;5019407;28;20303;-70
2022/07/02 11:06:06;;;;;;;7.82;7.30;;;;;;;33.38;38.69;95232.38;5033282;28;20223;-69
2022/07/02 11:08:52;;;;;;;9.10;7.13;;;;;;;33.45;38.20;95222.69;5033348;28;20200;-69
2022/07/02 11:11:22;;;;;;;7.70;6.97;;;;;;;33.51;37.76;95229.03;5032168;28;20200;-69
2022/07/02 11:13:51;;;;;;;11.45;7.38;;;;;;;33.55;38.69;95230.28;5012960;28;20678;-69
2022/07/02 11:16:28;;;;;;;11.13;8.07;;;;;;;33.77;38.55;95227.44;5013201;28;20196;-69
2022/07/02 11:18:57;;;;;;;10.55;8.00;;;;;;;33.24;38.39;95222.66;5012931;28;20204;-70
2022/07/02 11:21:25;;;;;;;8.60;7.88;;;;;;;32.87;38.94;95227.13;5013276;28;20220;-71
2022/07/02 11:23:53;;;;;;;10.23;8.43;;;;;;;32.77;38.39;95239.72;5012822;28;20632;-69
2022/07/02 11:26:21;;;;;;;9.25;7.55;;;;;;;32.63;38.43;95230.84;5012862;28;20239;-69
2022/07/02 11:28:49;;;;;;;8.00;7.35;;;;;;;32.58;38.95;95237.63;5013459;28;20558;-70
2022/07/02 11:31:17;;;;;;;9.13;8.32;;;;;;;32.62;39.42;95233.66;5013192;28;20630;-69
2022/07/02 11:33:48;;;;;;;9.20;7.50;;;;;;;32.21;40.00;95226.19;5013281;28;20200;-68
2022/07/02 11:36:15;;;;;;;17.83;13.85;;;;;;;32.25;41.76;95242.44;5013102;28;20204;-70